sensor_id;sensor_type;location;lat;lon;timestamp;P1;durP1;ratioP1;P2;durP2;ratioP2
26014;SDS011;13793;55.388;37.844;2022-07-18T00:00:57;9.95;;;8.63;;
26014;SDS011;13793;55.388;37.844;2022-07-18T00:03:27;9.03;;;7.20;;
26014;SDS011;13793;55.388;37.844;2022-07-18T00:05:58;9.63;;;8.08;;
26014;SDS011;13793;55.388;37.844;2022-07-18T00:08:29;12.47;;;8.33;;
26014;SDS011;13793;55.388;37.844;2022-07-18T00:10:59;9.38;;;8.18;;
26014;SDS011;13793;55.388;37.844;2022-07-18T00:13:30;9.95;;;8.28;;
26014;SDS011;13793;55.388;37.844;2022-07-18T00:16:01;11.57;;;9.68;;
26014;SDS011;13793;55.388;37.844;2022-07-18T00:18:32;10.90;;;9.33;;
26014;SDS011;13793;55.388;37.844;2022-07-18T00:21:06;11.30;;;8.63;;
26014;SDS011;13793;55.388;37.844;2022-07-18T00:23:37;8.58;;;7.78;;
26014;SDS011;13793;55.388;37.844;2022-07-18T00:26:07;12.45;;;11.15;;
26014;SDS011;13793;55.388;37.844;2022-07-18T00:28:38;11.60;;;10.48;;
26014;SDS011;13793;55.388;37.844;2022-07-18T00:31:09;10.08;;;8.83;;
26014;SDS011;13793;55.388;37.844;2022-07-18T00:33:39;11.08;;;9.10;;
26014;SDS011;13793;55.388;37.844;2022-07-18T00:36:10;8.85;;;7.95;;
26014;SDS011;13793;55.388;37.844;2022-07-18T00:38:41;9.15;;;7.65;;
26014;SDS011;13793;55.388;37.844;2022-07-18T00:41:15;8.40;;;7.20;;
26014;SDS011;13793;55.388;37.844;2022-07-18T00:43:47;8.38;;;7.35;;
26014;SDS011;13793;55.388;37.844;2022-07-18T00:46:27;8.10;;;7.30;;
26014;SDS011;13793;55.388;37.844;2022-07-18T00:48:53;8.95;;;7.90;;
26014;SDS011;13793;55.388;37.844;2022-07-18T00:51:24;10.53;;;6.65;;
26014;SDS011;13793;55.388;37.844;2022-07-18T00:53:55;9.55;;;7.05;;
26014;SDS011;13793;55.388;37.844;2022-07-18T00:56:26;7.95;;;6.00;;
26014;SDS011;13793;55.388;37.844;2022-07-18T00:58:56;6.83;;;6.12;;
26014;SDS011;13793;55.388;37.844;2022-07-18T01:01:27;6.40;;;5.80;;
26014;SDS011;13793;55.388;37.844;2022-07-18T01:04:18;6.75;;;5.55;;
26014;SDS011;13793;55.388;37.844;2022-07-18T01:06:50;7.00;;;6.05;;
26014;SDS011;13793;55.388;37.844;2022-07-18T01:09:21;7.50;;;6.47;;
26014;SDS011;13793;55.388;37.844;2022-07-18T01:11:52;8.43;;;7.60;;
26014;SDS011;13793;55.388;37.844;2022-07-18T01:14:22;9.33;;;8.15;;
26014;SDS011;13793;55.388;37.844;2022-07-18T01:16:53;10.65;;;9.60;;
26014;SDS011;13793;55.388;37.844;2022-07-18T01:19:24;10.75;;;9.65;;
26014;SDS011;13793;55.388;37.844;2022-07-18T01:21:55;10.63;;;7.60;;
26014;SDS011;13793;55.388;37.844;2022-07-18T01:24:25;7.58;;;6.72;;
26014;SDS011;13793;55.388;37.844;2022-07-18T01:26:56;8.88;;;6.70;;
26014;SDS011;13793;55.388;37.844;2022-07-18T01:29:27;10.72;;;6.28;;
26014;SDS011;13793;55.388;37.844;2022-07-18T01:32:03;7.20;;;6.50;;
26014;SDS011;13793;55.388;37.844;2022-07-18T01:34:35;12.40;;;6.42;;
26014;SDS011;13793;55.388;37.844;2022-07-18T01:37:07;8.10;;;6.25;;
26014;SDS011;13793;55.388;37.844;2022-07-18T01:39:38;8.98;;;6.62;;
26014;SDS011;13793;55.388;37.844;2022-07-18T01:42:10;9.03;;;6.60;;
26014;SDS011;13793;55.388;37.844;2022-07-18T01:44:41;7.15;;;6.45;;
26014;SDS011;13793;55.388;37.844;2022-07-18T01:47:12;7.12;;;5.70;;
26014;SDS011;13793;55.388;37.844;2022-07-18T01:49:43;6.83;;;5.58;;
26014;SDS011;13793;55.388;37.844;2022-07-18T01:52:14;7.20;;;5.80;;
26014;SDS011;13793;55.388;37.844;2022-07-18T01:54:45;8.33;;;6.33;;
26014;SDS011;13793;55.388;37.844;2022-07-18T01:57:16;7.45;;;6.15;;
26014;SDS011;13793;55.388;37.844;2022-07-18T01:59:47;7.67;;;6.12;;
26014;SDS011;13793;55.388;37.844;2022-07-18T02:02:17;10.53;;;7.40;;
26014;SDS011;13793;55.388;37.844;2022-07-18T02:04:48;7.53;;;6.72;;
26014;SDS011;13793;55.388;37.844;2022-07-18T02:07:35;8.93;;;6.70;;
26014;SDS011;13793;55.388;37.844;2022-07-18T02:10:08;8.50;;;6.83;;
26014;SDS011;13793;55.388;37.844;2022-07-18T02:12:39;8.03;;;6.67;;
26014;SDS011;13793;55.388;37.844;2022-07-18T02:15:12;7.85;;;6.15;;
26014;SDS011;13793;55.388;37.844;2022-07-18T02:17:43;7.72;;;7.03;;
26014;SDS011;13793;55.388;37.844;2022-07-18T02:20:14;7.60;;;6.85;;
26014;SDS011;13793;55.388;37.844;2022-07-18T02:22:45;11.48;;;9.80;;
26014;SDS011;13793;55.388;37.844;2022-07-18T02:25:16;10.45;;;8.08;;
26014;SDS011;13793;55.388;37.844;2022-07-18T02:27:46;8.25;;;7.45;;
26014;SDS011;13793;55.388;37.844;2022-07-18T02:30:17;8.18;;;7.30;;
26014;SDS011;13793;55.388;37.844;2022-07-18T02:32:48;8.58;;;7.60;;
26014;SDS011;13793;55.388;37.844;2022-07-18T02:35:18;10.08;;;8.48;;
26014;SDS011;13793;55.388;37.844;2022-07-18T02:37:49;11.03;;;7.85;;
26014;SDS011;13793;55.388;37.844;2022-07-18T02:40:20;7.45;;;6.25;;
26014;SDS011;13793;55.388;37.844;2022-07-18T02:42:51;8.08;;;6.37;;
26014;SDS011;13793;55.388;37.844;2022-07-18T02:45:22;7.35;;;6.47;;
26014;SDS011;13793;55.388;37.844;2022-07-18T02:47:53;8.05;;;6.80;;
26014;SDS011;13793;55.388;37.844;2022-07-18T02:50:23;8.85;;;8.05;;
26014;SDS011;13793;55.388;37.844;2022-07-18T02:52:54;10.03;;;8.30;;
26014;SDS011;13793;55.388;37.844;2022-07-18T02:55:25;10.63;;;7.70;;
26014;SDS011;13793;55.388;37.844;2022-07-18T02:57:56;10.10;;;7.90;;
26014;SDS011;13793;55.388;37.844;2022-07-18T03:00:26;9.23;;;8.43;;
26014;SDS011;13793;55.388;37.844;2022-07-18T03:02:57;9.10;;;8.20;;
26014;SDS011;13793;55.388;37.844;2022-07-18T03:05:28;10.45;;;9.40;;
26014;SDS011;13793;55.388;37.844;2022-07-18T03:07:59;9.95;;;8.95;;
26014;SDS011;13793;55.388;37.844;2022-07-18T03:10:29;10.25;;;9.10;;
26014;SDS011;13793;55.388;37.844;2022-07-18T03:13:00;9.25;;;8.30;;
26014;SDS011;13793;55.388;37.844;2022-07-18T03:15:31;10.60;;;8.93;;
26014;SDS011;13793;55.388;37.844;2022-07-18T03:18:02;9.88;;;8.88;;
26014;SDS011;13793;55.388;37.844;2022-07-18T03:20:33;10.88;;;9.28;;
26014;SDS011;13793;55.388;37.844;2022-07-18T03:23:10;11.35;;;8.95;;
26014;SDS011;13793;55.388;37.844;2022-07-18T03:25:36;10.48;;;8.43;;
26014;SDS011;13793;55.388;37.844;2022-07-18T03:28:07;13.95;;;9.68;;
26014;SDS011;13793;55.388;37.844;2022-07-18T03:30:38;14.23;;;10.00;;
26014;SDS011;13793;55.388;37.844;2022-07-18T03:33:08;14.25;;;9.40;;
26014;SDS011;13793;55.388;37.844;2022-07-18T03:35:39;10.53;;;7.97;;
26014;SDS011;13793;55.388;37.844;2022-07-18T03:38:10;10.30;;;7.15;;
26014;SDS011;13793;55.388;37.844;2022-07-18T03:40:40;9.33;;;6.58;;
26014;SDS011;13793;55.388;37.844;2022-07-18T03:43:11;9.28;;;7.00;;
26014;SDS011;13793;55.388;37.844;2022-07-18T03:45:42;8.08;;;6.72;;
26014;SDS011;13793;55.388;37.844;2022-07-18T03:48:13;11.28;;;7.47;;
26014;SDS011;13793;55.388;37.844;2022-07-18T03:50:47;7.42;;;6.20;;
26014;SDS011;13793;55.388;37.844;2022-07-18T03:53:18;8.40;;;6.58;;
26014;SDS011;13793;55.388;37.844;2022-07-18T03:55:48;9.10;;;6.67;;
26014;SDS011;13793;55.388;37.844;2022-07-18T03:58:19;11.85;;;6.95;;
26014;SDS011;13793;55.388;37.844;2022-07-18T04:00:50;9.33;;;7.28;;
26014;SDS011;13793;55.388;37.844;2022-07-18T04:03:21;9.03;;;7.47;;
26014;SDS011;13793;55.388;37.844;2022-07-18T04:05:51;9.63;;;7.47;;
26014;SDS011;13793;55.388;37.844;2022-07-18T04:08:22;9.43;;;7.08;;
26014;SDS011;13793;55.388;37.844;2022-07-18T04:10:53;10.58;;;7.17;;
26014;SDS011;13793;55.388;37.844;2022-07-18T04:13:24;9.38;;;6.37;;
26014;SDS011;13793;55.388;37.844;2022-07-18T04:15:54;8.53;;;6.58;;
26014;SDS011;13793;55.388;37.844;2022-07-18T04:18:25;7.58;;;6.78;;
26014;SDS011;13793;55.388;37.844;2022-07-18T04:20:56;10.85;;;7.00;;
26014;SDS011;13793;55.388;37.844;2022-07-18T04:23:27;8.05;;;6.45;;
26014;SDS011;13793;55.388;37.844;2022-07-18T04:25:57;9.60;;;7.72;;
26014;SDS011;13793;55.388;37.844;2022-07-18T04:28:30;9.00;;;7.12;;
26014;SDS011;13793;55.388;37.844;2022-07-18T04:31:00;8.28;;;7.12;;
26014;SDS011;13793;55.388;37.844;2022-07-18T04:33:31;10.48;;;8.08;;
26014;SDS011;13793;55.388;37.844;2022-07-18T04:36:01;9.98;;;7.45;;
26014;SDS011;13793;55.388;37.844;2022-07-18T04:38:32;7.60;;;6.20;;
26014;SDS011;13793;55.388;37.844;2022-07-18T04:41:05;8.23;;;6.12;;
26014;SDS011;13793;55.388;37.844;2022-07-18T04:43:36;7.45;;;5.62;;
26014;SDS011;13793;55.388;37.844;2022-07-18T04:46:06;9.68;;;6.33;;
26014;SDS011;13793;55.388;37.844;2022-07-18T04:48:37;9.28;;;6.42;;
26014;SDS011;13793;55.388;37.844;2022-07-18T04:51:08;9.00;;;6.22;;
26014;SDS011;13793;55.388;37.844;2022-07-18T04:53:38;9.20;;;6.42;;
26014;SDS011;13793;55.388;37.844;2022-07-18T04:56:09;14.98;;;6.70;;
26014;SDS011;13793;55.388;37.844;2022-07-18T04:58:39;7.65;;;5.72;;
26014;SDS011;13793;55.388;37.844;2022-07-18T05:01:10;10.05;;;6.47;;
26014;SDS011;13793;55.388;37.844;2022-07-18T05:03:41;9.00;;;5.58;;
26014;SDS011;13793;55.388;37.844;2022-07-18T05:06:12;9.45;;;5.45;;
26014;SDS011;13793;55.388;37.844;2022-07-18T05:08:43;9.65;;;5.70;;
26014;SDS011;13793;55.388;37.844;2022-07-18T05:11:14;7.92;;;5.62;;
26014;SDS011;13793;55.388;37.844;2022-07-18T05:13:45;9.35;;;6.40;;
26014;SDS011;13793;55.388;37.844;2022-07-18T05:16:16;9.90;;;6.30;;
26014;SDS011;13793;55.388;37.844;2022-07-18T05:18:46;7.17;;;5.50;;
26014;SDS011;13793;55.388;37.844;2022-07-18T05:21:17;9.58;;;5.80;;
26014;SDS011;13793;55.388;37.844;2022-07-18T05:23:48;9.08;;;6.20;;
26014;SDS011;13793;55.388;37.844;2022-07-18T05:26:19;9.48;;;7.05;;
26014;SDS011;13793;55.388;37.844;2022-07-18T05:28:49;7.08;;;5.97;;
26014;SDS011;13793;55.388;37.844;2022-07-18T05:31:20;8.05;;;6.60;;
26014;SDS011;13793;55.388;37.844;2022-07-18T05:33:51;7.40;;;5.70;;
26014;SDS011;13793;55.388;37.844;2022-07-18T05:36:21;7.85;;;6.22;;
26014;SDS011;13793;55.388;37.844;2022-07-18T05:38:52;8.68;;;6.08;;
26014;SDS011;13793;55.388;37.844;2022-07-18T05:41:23;9.05;;;5.72;;
26014;SDS011;13793;55.388;37.844;2022-07-18T05:43:54;9.35;;;6.42;;
26014;SDS011;13793;55.388;37.844;2022-07-18T05:46:25;6.30;;;5.42;;
26014;SDS011;13793;55.388;37.844;2022-07-18T05:48:56;7.35;;;5.25;;
26014;SDS011;13793;55.388;37.844;2022-07-18T05:51:27;6.67;;;5.15;;
26014;SDS011;13793;55.388;37.844;2022-07-18T05:53:58;7.97;;;5.20;;
26014;SDS011;13793;55.388;37.844;2022-07-18T05:56:28;6.65;;;5.60;;
26014;SDS011;13793;55.388;37.844;2022-07-18T05:58:59;5.92;;;5.05;;
26014;SDS011;13793;55.388;37.844;2022-07-18T06:01:31;8.00;;;5.30;;
26014;SDS011;13793;55.388;37.844;2022-07-18T06:04:05;6.78;;;4.70;;
26014;SDS011;13793;55.388;37.844;2022-07-18T06:06:36;7.08;;;4.17;;
26014;SDS011;13793;55.388;37.844;2022-07-18T06:09:07;7.53;;;5.03;;
26014;SDS011;13793;55.388;37.844;2022-07-18T06:11:38;9.00;;;4.83;;
26014;SDS011;13793;55.388;37.844;2022-07-18T06:14:08;5.17;;;4.08;;
26014;SDS011;13793;55.388;37.844;2022-07-18T06:16:39;5.75;;;4.30;;
26014;SDS011;13793;55.388;37.844;2022-07-18T06:19:10;7.17;;;4.08;;
26014;SDS011;13793;55.388;37.844;2022-07-18T06:21:41;5.00;;;3.40;;
26014;SDS011;13793;55.388;37.844;2022-07-18T06:24:12;5.37;;;3.72;;
26014;SDS011;13793;55.388;37.844;2022-07-18T06:26:43;4.65;;;2.62;;
26014;SDS011;13793;55.388;37.844;2022-07-18T06:29:13;2.85;;;2.10;;
26014;SDS011;13793;55.388;37.844;2022-07-18T06:31:44;3.60;;;3.25;;
26014;SDS011;13793;55.388;37.844;2022-07-18T06:34:15;3.80;;;3.33;;
26014;SDS011;13793;55.388;37.844;2022-07-18T06:36:46;3.58;;;3.22;;
26014;SDS011;13793;55.388;37.844;2022-07-18T06:39:17;5.25;;;3.65;;
26014;SDS011;13793;55.388;37.844;2022-07-18T06:41:48;5.40;;;3.60;;
26014;SDS011;13793;55.388;37.844;2022-07-18T06:44:18;4.17;;;3.12;;
26014;SDS011;13793;55.388;37.844;2022-07-18T06:46:49;4.35;;;3.58;;
26014;SDS011;13793;55.388;37.844;2022-07-18T06:49:25;4.30;;;3.10;;
26014;SDS011;13793;55.388;37.844;2022-07-18T06:51:55;3.10;;;2.40;;
26014;SDS011;13793;55.388;37.844;2022-07-18T06:54:26;4.05;;;2.50;;
26014;SDS011;13793;55.388;37.844;2022-07-18T06:56:57;2.95;;;2.45;;
26014;SDS011;13793;55.388;37.844;2022-07-18T06:59:28;3.08;;;1.40;;
26014;SDS011;13793;55.388;37.844;2022-07-18T07:02:00;2.22;;;1.90;;
26014;SDS011;13793;55.388;37.844;2022-07-18T07:04:30;3.15;;;1.92;;
26014;SDS011;13793;55.388;37.844;2022-07-18T07:07:01;4.10;;;2.30;;
26014;SDS011;13793;55.388;37.844;2022-07-18T07:09:32;3.62;;;2.35;;
26014;SDS011;13793;55.388;37.844;2022-07-18T07:12:03;2.70;;;2.30;;
26014;SDS011;13793;55.388;37.844;2022-07-18T07:14:34;3.47;;;2.50;;
26014;SDS011;13793;55.388;37.844;2022-07-18T07:17:05;2.85;;;2.25;;
26014;SDS011;13793;55.388;37.844;2022-07-18T07:19:36;4.83;;;2.60;;
26014;SDS011;13793;55.388;37.844;2022-07-18T07:22:10;2.80;;;2.08;;
26014;SDS011;13793;55.388;37.844;2022-07-18T07:24:41;3.83;;;2.52;;
26014;SDS011;13793;55.388;37.844;2022-07-18T07:27:11;3.72;;;2.70;;
26014;SDS011;13793;55.388;37.844;2022-07-18T07:29:43;3.75;;;3.00;;
26014;SDS011;13793;55.388;37.844;2022-07-18T07:32:13;3.80;;;2.60;;
26014;SDS011;13793;55.388;37.844;2022-07-18T07:34:44;4.70;;;2.70;;
26014;SDS011;13793;55.388;37.844;2022-07-18T07:37:15;6.42;;;2.90;;
26014;SDS011;13793;55.388;37.844;2022-07-18T07:39:46;3.52;;;2.67;;
26014;SDS011;13793;55.388;37.844;2022-07-18T07:42:18;5.40;;;3.12;;
26014;SDS011;13793;55.388;37.844;2022-07-18T07:44:49;5.78;;;2.77;;
26014;SDS011;13793;55.388;37.844;2022-07-18T07:47:20;3.85;;;2.80;;
26014;SDS011;13793;55.388;37.844;2022-07-18T07:49:51;4.55;;;3.37;;
26014;SDS011;13793;55.388;37.844;2022-07-18T07:52:21;5.22;;;3.40;;
26014;SDS011;13793;55.388;37.844;2022-07-18T07:54:52;5.62;;;3.22;;
26014;SDS011;13793;55.388;37.844;2022-07-18T07:57:23;5.60;;;3.42;;
26014;SDS011;13793;55.388;37.844;2022-07-18T07:59:54;5.92;;;3.52;;
26014;SDS011;13793;55.388;37.844;2022-07-18T08:02:25;4.12;;;3.12;;
26014;SDS011;13793;55.388;37.844;2022-07-18T08:04:56;7.78;;;3.50;;
26014;SDS011;13793;55.388;37.844;2022-07-18T08:07:27;6.67;;;3.17;;
26014;SDS011;13793;55.388;37.844;2022-07-18T08:09:58;3.90;;;2.95;;
26014;SDS011;13793;55.388;37.844;2022-07-18T08:12:29;4.33;;;3.17;;
26014;SDS011;13793;55.388;37.844;2022-07-18T08:15:00;3.70;;;1.95;;
26014;SDS011;13793;55.388;37.844;2022-07-18T08:17:31;3.22;;;1.70;;
26014;SDS011;13793;55.388;37.844;2022-07-18T08:20:02;3.70;;;2.67;;
26014;SDS011;13793;55.388;37.844;2022-07-18T08:22:34;3.15;;;2.40;;
26014;SDS011;13793;55.388;37.844;2022-07-18T08:25:05;4.10;;;2.40;;
26014;SDS011;13793;55.388;37.844;2022-07-18T08:27:36;3.25;;;2.90;;
26014;SDS011;13793;55.388;37.844;2022-07-18T08:30:07;4.97;;;2.92;;
26014;SDS011;13793;55.388;37.844;2022-07-18T08:32:38;4.53;;;2.75;;
26014;SDS011;13793;55.388;37.844;2022-07-18T08:35:09;4.62;;;3.47;;
26014;SDS011;13793;55.388;37.844;2022-07-18T08:37:40;3.50;;;3.20;;
26014;SDS011;13793;55.388;37.844;2022-07-18T08:40:11;4.47;;;2.50;;
26014;SDS011;13793;55.388;37.844;2022-07-18T08:42:43;3.77;;;2.70;;
26014;SDS011;13793;55.388;37.844;2022-07-18T08:45:15;3.17;;;2.08;;
26014;SDS011;13793;55.388;37.844;2022-07-18T08:47:46;2.65;;;1.90;;
26014;SDS011;13793;55.388;37.844;2022-07-18T08:50:17;3.35;;;2.12;;
26014;SDS011;13793;55.388;37.844;2022-07-18T08:52:49;2.50;;;2.10;;
26014;SDS011;13793;55.388;37.844;2022-07-18T08:55:20;3.15;;;2.00;;
26014;SDS011;13793;55.388;37.844;2022-07-18T08:57:50;3.92;;;1.90;;
26014;SDS011;13793;55.388;37.844;2022-07-18T09:00:24;3.67;;;2.30;;
26014;SDS011;13793;55.388;37.844;2022-07-18T09:02:56;3.08;;;2.00;;
26014;SDS011;13793;55.388;37.844;2022-07-18T09:05:28;4.65;;;2.40;;
26014;SDS011;13793;55.388;37.844;2022-07-18T09:08:09;6.70;;;2.55;;
26014;SDS011;13793;55.388;37.844;2022-07-18T09:10:57;3.02;;;2.20;;
26014;SDS011;13793;55.388;37.844;2022-07-18T09:13:24;6.45;;;2.40;;
26014;SDS011;13793;55.388;37.844;2022-07-18T09:16:04;3.92;;;2.37;;
26014;SDS011;13793;55.388;37.844;2022-07-18T09:18:45;2.85;;;2.40;;
26014;SDS011;13793;55.388;37.844;2022-07-18T09:21:20;3.95;;;2.47;;
26014;SDS011;13793;55.388;37.844;2022-07-18T09:23:52;4.05;;;2.27;;
26014;SDS011;13793;55.388;37.844;2022-07-18T09:26:36;3.55;;;2.70;;
26014;SDS011;13793;55.388;37.844;2022-07-18T09:29:09;3.60;;;2.20;;
26014;SDS011;13793;55.388;37.844;2022-07-18T09:31:49;3.87;;;2.15;;
26014;SDS011;13793;55.388;37.844;2022-07-18T09:34:37;4.42;;;2.17;;
26014;SDS011;13793;55.388;37.844;2022-07-18T09:37:11;4.28;;;1.92;;
26014;SDS011;13793;55.388;37.844;2022-07-18T09:39:42;2.87;;;2.20;;
26014;SDS011;13793;55.388;37.844;2022-07-18T09:42:15;2.40;;;1.70;;
26014;SDS011;13793;55.388;37.844;2022-07-18T09:45:09;2.33;;;1.70;;
26014;SDS011;13793;55.388;37.844;2022-07-18T09:47:30;1.90;;;1.62;;
26014;SDS011;13793;55.388;37.844;2022-07-18T09:50:00;3.80;;;1.77;;
26014;SDS011;13793;55.388;37.844;2022-07-18T09:52:31;2.80;;;1.75;;
26014;SDS011;13793;55.388;37.844;2022-07-18T09:55:03;2.58;;;1.72;;
26014;SDS011;13793;55.388;37.844;2022-07-18T09:57:34;3.25;;;1.80;;
26014;SDS011;13793;55.388;37.844;2022-07-18T10:00:06;2.00;;;1.42;;
26014;SDS011;13793;55.388;37.844;2022-07-18T10:02:38;2.20;;;1.60;;
26014;SDS011;13793;55.388;37.844;2022-07-18T10:05:09;1.92;;;1.45;;
26014;SDS011;13793;55.388;37.844;2022-07-18T10:07:40;2.55;;;1.30;;
26014;SDS011;13793;55.388;37.844;2022-07-18T10:10:13;2.27;;;1.72;;
26014;SDS011;13793;55.388;37.844;2022-07-18T10:12:44;1.60;;;1.30;;
26014;SDS011;13793;55.388;37.844;2022-07-18T10:15:15;3.12;;;1.65;;
26014;SDS011;13793;55.388;37.844;2022-07-18T10:17:46;2.87;;;1.52;;
26014;SDS011;13793;55.388;37.844;2022-07-18T10:20:17;3.67;;;1.45;;
26014;SDS011;13793;55.388;37.844;2022-07-18T10:22:52;1.55;;;1.37;;
26014;SDS011;13793;55.388;37.844;2022-07-18T10:25:24;2.70;;;1.60;;
26014;SDS011;13793;55.388;37.844;2022-07-18T10:28:05;2.00;;;1.55;;
26014;SDS011;13793;55.388;37.844;2022-07-18T10:30:44;1.60;;;1.37;;
26014;SDS011;13793;55.388;37.844;2022-07-18T10:36:09;1.82;;;1.37;;
26014;SDS011;13793;55.388;37.844;2022-07-18T11:00:34;1.62;;;1.20;;
26014;SDS011;13793;55.388;37.844;2022-07-18T11:03:04;0.88;;;0.82;;
26014;SDS011;13793;55.388;37.844;2022-07-18T11:05:45;2.35;;;1.22;;
26014;SDS011;13793;55.388;37.844;2022-07-18T11:08:21;2.02;;;1.42;;
26014;SDS011;13793;55.388;37.844;2022-07-18T11:13:43;1.17;;;1.00;;
26014;SDS011;13793;55.388;37.844;2022-07-18T11:16:27;3.10;;;1.30;;
26014;SDS011;13793;55.388;37.844;2022-07-18T11:21:34;1.30;;;1.20;;
26014;SDS011;13793;55.388;37.844;2022-07-18T11:24:06;1.65;;;1.25;;
26014;SDS011;13793;55.388;37.844;2022-07-18T11:26:42;4.00;;;1.80;;
26014;SDS011;13793;55.388;37.844;2022-07-18T11:29:19;2.62;;;1.40;;
26014;SDS011;13793;55.388;37.844;2022-07-18T11:31:53;2.12;;;1.32;;
26014;SDS011;13793;55.388;37.844;2022-07-18T11:34:25;2.02;;;1.40;;
26014;SDS011;13793;55.388;37.844;2022-07-18T11:36:56;1.50;;;1.40;;
26014;SDS011;13793;55.388;37.844;2022-07-18T11:39:28;4.15;;;1.50;;
26014;SDS011;13793;55.388;37.844;2022-07-18T11:42:00;4.12;;;1.75;;
26014;SDS011;13793;55.388;37.844;2022-07-18T11:44:31;2.80;;;1.55;;
26014;SDS011;13793;55.388;37.844;2022-07-18T11:47:07;1.42;;;1.10;;
26014;SDS011;13793;55.388;37.844;2022-07-18T11:49:35;1.65;;;1.20;;
26014;SDS011;13793;55.388;37.844;2022-07-18T11:52:06;2.10;;;1.30;;
26014;SDS011;13793;55.388;37.844;2022-07-18T11:54:37;3.00;;;1.40;;
26014;SDS011;13793;55.388;37.844;2022-07-18T11:57:08;1.90;;;1.20;;
26014;SDS011;13793;55.388;37.844;2022-07-18T11:59:39;1.90;;;1.40;;
26014;SDS011;13793;55.388;37.844;2022-07-18T12:02:12;2.10;;;1.50;;
26014;SDS011;13793;55.388;37.844;2022-07-18T12:04:44;5.20;;;1.70;;
26014;SDS011;13793;55.388;37.844;2022-07-18T12:07:16;3.25;;;1.80;;
26014;SDS011;13793;55.388;37.844;2022-07-18T12:09:50;3.83;;;1.60;;
26014;SDS011;13793;55.388;37.844;2022-07-18T12:12:22;3.47;;;1.70;;
26014;SDS011;13793;55.388;37.844;2022-07-18T12:14:57;5.37;;;1.85;;
26014;SDS011;13793;55.388;37.844;2022-07-18T12:17:30;2.37;;;2.10;;
26014;SDS011;13793;55.388;37.844;2022-07-18T12:20:11;3.30;;;2.35;;
26014;SDS011;13793;55.388;37.844;2022-07-18T12:23:03;3.55;;;2.52;;
26014;SDS011;13793;55.388;37.844;2022-07-18T12:25:40;2.47;;;2.27;;
26014;SDS011;13793;55.388;37.844;2022-07-18T12:28:12;3.30;;;2.30;;
26014;SDS011;13793;55.388;37.844;2022-07-18T12:30:43;3.87;;;2.02;;
26014;SDS011;13793;55.388;37.844;2022-07-18T12:33:14;4.30;;;2.00;;
26014;SDS011;13793;55.388;37.844;2022-07-18T12:35:45;6.53;;;2.98;;
26014;SDS011;13793;55.388;37.844;2022-07-18T12:38:17;4.58;;;2.22;;
26014;SDS011;13793;55.388;37.844;2022-07-18T12:40:53;4.62;;;2.27;;
26014;SDS011;13793;55.388;37.844;2022-07-18T12:43:30;4.60;;;2.65;;
26014;SDS011;13793;55.388;37.844;2022-07-18T12:46:13;6.15;;;2.50;;
26014;SDS011;13793;55.388;37.844;2022-07-18T12:48:37;2.90;;;2.05;;
26014;SDS011;13793;55.388;37.844;2022-07-18T12:51:09;5.03;;;2.50;;
26014;SDS011;13793;55.388;37.844;2022-07-18T12:53:41;3.65;;;2.20;;
26014;SDS011;13793;55.388;37.844;2022-07-18T12:56:12;6.45;;;2.55;;
26014;SDS011;13793;55.388;37.844;2022-07-18T12:58:43;3.52;;;2.30;;
26014;SDS011;13793;55.388;37.844;2022-07-18T13:01:14;4.58;;;2.30;;
26014;SDS011;13793;55.388;37.844;2022-07-18T13:03:45;2.87;;;2.15;;
26014;SDS011;13793;55.388;37.844;2022-07-18T13:06:16;3.40;;;2.35;;
26014;SDS011;13793;55.388;37.844;2022-07-18T13:08:47;3.42;;;1.92;;
26014;SDS011;13793;55.388;37.844;2022-07-18T13:11:18;3.85;;;2.02;;
26014;SDS011;13793;55.388;37.844;2022-07-18T13:13:49;4.47;;;2.17;;
26014;SDS011;13793;55.388;37.844;2022-07-18T13:16:20;4.20;;;2.10;;
26014;SDS011;13793;55.388;37.844;2022-07-18T13:18:52;3.47;;;2.00;;
26014;SDS011;13793;55.388;37.844;2022-07-18T13:21:23;2.83;;;1.95;;
26014;SDS011;13793;55.388;37.844;2022-07-18T13:23:53;3.02;;;1.90;;
26014;SDS011;13793;55.388;37.844;2022-07-18T13:26:24;3.10;;;1.60;;
26014;SDS011;13793;55.388;37.844;2022-07-18T13:28:55;3.75;;;1.52;;
26014;SDS011;13793;55.388;37.844;2022-07-18T13:31:25;2.37;;;1.60;;
26014;SDS011;13793;55.388;37.844;2022-07-18T13:33:56;3.25;;;1.70;;
26014;SDS011;13793;55.388;37.844;2022-07-18T13:36:27;4.92;;;2.02;;
26014;SDS011;13793;55.388;37.844;2022-07-18T13:38:59;3.45;;;2.10;;
26014;SDS011;13793;55.388;37.844;2022-07-18T13:41:33;2.62;;;2.00;;
26014;SDS011;13793;55.388;37.844;2022-07-18T13:44:04;4.30;;;2.22;;
26014;SDS011;13793;55.388;37.844;2022-07-18T13:46:35;7.78;;;2.70;;
26014;SDS011;13793;55.388;37.844;2022-07-18T13:49:07;4.78;;;2.58;;
26014;SDS011;13793;55.388;37.844;2022-07-18T13:51:42;5.35;;;2.90;;
26014;SDS011;13793;55.388;37.844;2022-07-18T13:54:13;4.83;;;3.20;;
26014;SDS011;13793;55.388;37.844;2022-07-18T13:56:47;5.67;;;2.87;;
26014;SDS011;13793;55.388;37.844;2022-07-18T13:59:18;5.97;;;2.30;;
26014;SDS011;13793;55.388;37.844;2022-07-18T14:01:48;6.83;;;2.60;;
26014;SDS011;13793;55.388;37.844;2022-07-18T14:04:19;3.80;;;2.30;;
26014;SDS011;13793;55.388;37.844;2022-07-18T14:06:50;5.20;;;2.30;;
26014;SDS011;13793;55.388;37.844;2022-07-18T14:09:21;4.85;;;2.20;;
26014;SDS011;13793;55.388;37.844;2022-07-18T14:11:52;6.53;;;2.30;;
26014;SDS011;13793;55.388;37.844;2022-07-18T14:14:23;4.47;;;2.33;;
26014;SDS011;13793;55.388;37.844;2022-07-18T14:16:53;2.92;;;2.20;;
26014;SDS011;13793;55.388;37.844;2022-07-18T14:19:24;4.55;;;2.33;;
26014;SDS011;13793;55.388;37.844;2022-07-18T14:21:54;4.03;;;2.40;;
26014;SDS011;13793;55.388;37.844;2022-07-18T14:24:25;2.95;;;2.30;;
26014;SDS011;13793;55.388;37.844;2022-07-18T14:26:56;4.65;;;2.30;;
26014;SDS011;13793;55.388;37.844;2022-07-18T14:29:27;4.30;;;2.10;;
26014;SDS011;13793;55.388;37.844;2022-07-18T14:31:58;5.78;;;2.37;;
26014;SDS011;13793;55.388;37.844;2022-07-18T14:34:30;3.77;;;2.00;;
26014;SDS011;13793;55.388;37.844;2022-07-18T14:37:00;4.62;;;2.08;;
26014;SDS011;13793;55.388;37.844;2022-07-18T14:39:31;3.83;;;2.35;;
26014;SDS011;13793;55.388;37.844;2022-07-18T14:42:02;6.97;;;2.50;;
26014;SDS011;13793;55.388;37.844;2022-07-18T14:44:32;6.33;;;1.90;;
26014;SDS011;13793;55.388;37.844;2022-07-18T14:47:03;4.30;;;1.85;;
26014;SDS011;13793;55.388;37.844;2022-07-18T14:49:34;4.10;;;1.82;;
26014;SDS011;13793;55.388;37.844;2022-07-18T14:52:05;3.05;;;1.57;;
26014;SDS011;13793;55.388;37.844;2022-07-18T14:54:35;2.47;;;1.52;;
26014;SDS011;13793;55.388;37.844;2022-07-18T14:57:06;3.75;;;2.00;;
26014;SDS011;13793;55.388;37.844;2022-07-18T14:59:38;4.17;;;1.85;;
26014;SDS011;13793;55.388;37.844;2022-07-18T15:02:08;2.47;;;1.77;;
26014;SDS011;13793;55.388;37.844;2022-07-18T15:04:41;5.22;;;1.67;;
26014;SDS011;13793;55.388;37.844;2022-07-18T15:07:12;3.47;;;1.82;;
26014;SDS011;13793;55.388;37.844;2022-07-18T15:09:42;3.22;;;2.05;;
26014;SDS011;13793;55.388;37.844;2022-07-18T15:12:13;3.17;;;1.90;;
26014;SDS011;13793;55.388;37.844;2022-07-18T15:14:44;6.08;;;1.90;;
26014;SDS011;13793;55.388;37.844;2022-07-18T15:17:15;2.80;;;1.87;;
26014;SDS011;13793;55.388;37.844;2022-07-18T15:19:46;4.45;;;1.92;;
26014;SDS011;13793;55.388;37.844;2022-07-18T15:22:17;2.40;;;2.00;;
26014;SDS011;13793;55.388;37.844;2022-07-18T15:24:47;4.17;;;2.40;;
26014;SDS011;13793;55.388;37.844;2022-07-18T15:27:18;4.17;;;2.40;;
26014;SDS011;13793;55.388;37.844;2022-07-18T15:29:49;5.50;;;2.70;;